Baqargarh, India

2:59 PM IST on August 24, 2017 (GMT +0530)
Indira Gandhi International | | Change Station

Elev 764 ft 28.57 °N, 77.12 °E | Updated 29 minutes ago

Haze
Haze
93 °F
Feels Like 110 °F
N
5
Wind Variable Wind from NE

Today
High -- | Low -- °F
--% Chance of Precip.
Yesterday
High -- | Low -- °F
Precip. -- in
Pressure 29.62 in
Visibility 1.9 miles
Clouds Scattered Clouds 3000 ft
Mostly Cloudy 10000 ft
Heat Index 110 °F
Dew Point 79 °F
Humidity 63%
Rainfall 0.00 in
Snow Depth Not available.
5:56 AM 6:52 PM
Waxing Crescent, 8% visible
METAR VIDP 240900Z 05004KT 3000 HZ SCT030 BKN100 34/26 Q1003 NOSIG
Pressure 29.62 in
Visibility 1.9 miles
Clouds Scattered Clouds 3000 ft
Mostly Cloudy 10000 ft
Heat Index 110 °F
Dew Point 79 °F
Humidity 63%
Rainfall 0.00 in
Snow Depth Not available.
5:56 AM 6:52 PM
Waxing Crescent, 8% visible
METAR VIDP 240900Z 05004KT 3000 HZ SCT030 BKN100 34/26 Q1003 NOSIG

Get Severe Weather Alerts

Thanks for signing up!

Be on the lookout for a verification email in your inbox.

You'll start receiving the daily forecast at 6 AM.

×

10-Day Weather Forecast

No radar image for this location.
×

Almanac

Astronomy

Aug. 24, 2017 Rise Set
Actual Time
Civil Twilight
Nautical Twilight
Astronomical Twilight
Moon
Length of Visible Light
Length of Day
Tomorrow will be .
, % of the Moon is Illuminated

Today's Extremes

Country Highs Country Lows

Community

WunderPhotos

Category 6

Welcome to Category 6. This is the collective home for Weather Underground's featured writeups by Dr. Jeff Masters (right), Bob Henson (left), Chris Burt, and other regular contributors.

Nearby

Air Quality

  Air Quality AQ Index Pollutant
Not available.

Snow Depth

Station Depth Elevation

Earthquake Activity

City Distance Mag. Time & Date
Minimum magnitude displayed is 2.5.

Coastal Water Temperatures

Place Temperature

Stations

Nearby Weather Stations

Station Location Temp. Windchill Dew Point Humidity Wind Precip. Elev Updated Type